CYOC

Old Crow Airport

Old Crow, , Canada
METAR CYOC 202000Z 25006KT 20SM -RA SCT014 OVC065 13/11 A3000 RMK ST4SC4 VIS N 2 1/2 SLP173
Observed Flight Rules
Aug-20 @ 20:00 UTC (30 minutes ago) Visual Flight Rules
Wind Visibility Clouds Conditions
250° at 6 knots 20 miles
  • Scattered at 1,400' AGL
  • Overcast at 6,500' AGL
  • Light Rain
Temperatures Readings
Current 13°C / 55°F
Dewpoint 11°C / 52°F
Humidity 88%
Altimeter 30" Hg
Pressure 1017.3 hPa
Elevation 251
METAR CYOC 202000Z 25006KT 20SM -RA SCT014 OVC065 13/11 A3000 RMK ST4SC4 VIS N 2 1/2 SLP173
Observed Flight Rules
Aug-20 @ 20:00 UTC
(30 minutes ago)
VFR
Wind Visibility
250° at 6 knots 20 miles
Clouds
  • Scattered at 1,400' AGL
  • Overcast at 6,500' AGL
Conditions
  • Light Rain
Temperature Dewpoint
13°C / 55°F 11°C / 52°F
Humidity Altimeter Pressure
88% 30" Hg 1017.3 hPa